createdAt,value
2022-08-17T00:03:57.886Z,13.50
2022-08-17T00:14:27.347Z,11.30
2022-08-17T00:24:56.209Z,11.90
2022-08-17T00:35:28.021Z,10.80
2022-08-17T00:45:57.331Z,10.20
2022-08-17T00:56:31.424Z,16.90
2022-08-17T01:07:03.047Z,13.20
2022-08-17T01:17:31.967Z,11.20
2022-08-17T01:28:00.918Z,10.40
2022-08-17T01:38:32.128Z,13.40
2022-08-17T01:49:01.997Z,10.80
2022-08-17T01:59:30.894Z,10.50
2022-08-17T02:09:59.737Z,13.20
2022-08-17T02:20:41.538Z,12.10
2022-08-17T02:31:13.862Z,8.90
2022-08-17T02:41:44.072Z,10.00
2022-08-17T02:52:12.917Z,10.00
2022-08-17T03:02:43.788Z,10.10
2022-08-17T03:13:14.909Z,9.60
2022-08-17T03:23:43.681Z,9.20
2022-08-17T03:34:12.554Z,10.90
2022-08-17T03:44:41.504Z,11.20
2022-08-17T03:55:30.749Z,9.20
2022-08-17T04:06:05.944Z,13.10
2022-08-17T04:16:36.293Z,13.60
2022-08-17T04:27:05.248Z,13.30
2022-08-17T04:37:34.097Z,17.10
2022-08-17T04:48:03.104Z,16.00
2022-08-17T04:58:32.011Z,16.90
2022-08-17T05:09:01.583Z,12.70
2022-08-17T05:19:30.585Z,14.10
2022-08-17T05:29:59.576Z,18.70
2022-08-17T05:40:32.768Z,21.00
2022-08-17T05:51:15.621Z,16.70
2022-08-17T06:01:54.806Z,19.30
2022-08-17T06:12:36.244Z,17.40
2022-08-17T06:23:10.613Z,18.40
2022-08-17T06:33:41.919Z,19.70
2022-08-17T06:44:43.682Z,18.90
2022-08-17T06:55:17.691Z,19.50
2022-08-17T07:05:53.581Z,18.40
2022-08-17T07:16:28.788Z,20.90
2022-08-17T07:27:10.178Z,18.60
2022-08-17T07:37:39.743Z,17.60
2022-08-17T07:48:21.953Z,15.00
2022-08-17T07:59:07.076Z,15.10
2022-08-17T08:09:43.599Z,15.70
2022-08-17T08:20:53.200Z,15.70
2022-08-17T08:31:25.946Z,15.30
2022-08-17T08:42:02.504Z,15.70
2022-08-17T08:52:54.948Z,13.40
2022-08-17T09:03:54.116Z,15.00
2022-08-17T09:14:29.190Z,13.60
2022-08-17T09:25:04.794Z,10.80
2022-08-17T09:35:37.993Z,13.30
2022-08-17T09:46:13.872Z,12.40
2022-08-17T09:57:18.145Z,12.40
2022-08-17T10:07:52.968Z,13.10
2022-08-17T10:18:34.699Z,13.10
2022-08-17T10:29:08.200Z,15.20
2022-08-17T10:39:52.098Z,11.70
2022-08-17T10:51:02.604Z,13.90
2022-08-17T11:02:16.008Z,12.30
2022-08-17T11:13:01.555Z,12.20
2022-08-17T11:23:59.520Z,12.50
2022-08-17T11:34:32.046Z,12.20
2022-08-17T11:45:05.385Z,11.20
2022-08-17T11:56:08.457Z,9.00
2022-08-17T12:06:49.990Z,9.30
2022-08-17T12:17:39.782Z,10.10
2022-08-17T12:28:23.941Z,10.40
2022-08-17T12:39:12.926Z,10.10
2022-08-17T12:49:44.954Z,11.30
2022-08-17T13:00:18.951Z,13.40
2022-08-17T13:10:58.379Z,10.90
2022-08-17T13:21:33.503Z,11.20
2022-08-17T13:32:19.728Z,10.00
2022-08-17T13:42:52.892Z,12.00
2022-08-17T13:53:26.731Z,10.50
2022-08-17T14:03:55.661Z,10.20
2022-08-17T14:14:26.048Z,10.10
2022-08-17T14:24:55.299Z,12.00
2022-08-17T14:35:25.702Z,10.40
2022-08-17T14:45:54.651Z,9.20
2022-08-17T14:56:23.862Z,9.40
2022-08-17T15:06:53.254Z,12.80
2022-08-17T15:17:22.278Z,9.70
2022-08-17T15:27:51.667Z,10.20
2022-08-17T15:38:22.344Z,10.00
2022-08-17T15:48:53.238Z,9.50
2022-08-17T15:59:22.636Z,10.50
2022-08-17T16:09:55.834Z,12.60
2022-08-17T16:20:24.907Z,14.30
2022-08-17T16:30:53.894Z,11.30
2022-08-17T16:41:36.516Z,11.30
2022-08-17T16:52:06.587Z,11.30
2022-08-17T17:02:37.698Z,10.00
2022-08-17T17:13:09.311Z,15.30
2022-08-17T17:23:53.451Z,12.40
2022-08-17T17:34:23.789Z,11.30
2022-08-17T17:45:00.763Z,11.40
2022-08-17T17:55:47.588Z,11.40
2022-08-17T18:06:27.980Z,15.60
2022-08-17T18:16:59.819Z,13.00
2022-08-17T18:27:35.259Z,13.40
2022-08-17T18:48:59.041Z,13.00
2022-08-17T18:59:35.250Z,17.00
2022-08-17T19:10:13.424Z,14.30
2022-08-17T19:20:49.251Z,14.50
2022-08-17T19:31:22.322Z,16.50
2022-08-17T19:42:00.962Z,14.70
2022-08-17T19:52:49.653Z,16.00
2022-08-17T20:03:24.449Z,18.00
2022-08-17T20:14:01.375Z,17.90
2022-08-17T20:24:37.852Z,17.20
2022-08-17T20:35:24.019Z,19.10
2022-08-17T20:46:25.071Z,18.50
2022-08-17T20:56:58.021Z,17.50
2022-08-17T21:07:32.952Z,18.60
2022-08-17T21:18:16.761Z,17.50
2022-08-17T21:29:00.379Z,17.90
2022-08-17T21:39:41.966Z,19.20
2022-08-17T21:50:21.565Z,18.00
2022-08-17T22:01:10.182Z,19.10
2022-08-17T22:11:56.118Z,19.20
2022-08-17T22:22:29.679Z,17.80
2022-08-17T22:32:59.349Z,20.00
2022-08-17T22:43:31.603Z,19.40
2022-08-17T22:54:32.007Z,19.10
2022-08-17T23:05:21.927Z,18.90
2022-08-17T23:15:52.659Z,17.80
2022-08-17T23:26:23.268Z,17.40
2022-08-17T23:36:52.572Z,21.40
2022-08-17T23:47:21.753Z,19.10
2022-08-17T23:57:50.885Z,20.40
